sensor_id;sensor_type;location;lat;lon;timestamp;pressure;altitude;pressure_sealevel;temperature;humidity
24230;BME280;12362;50.004;8.006;2023-05-22T00:00:07;100149.91;;;17.41;100.00
24230;BME280;12362;50.004;8.006;2023-05-22T00:02:35;100157.59;;;17.33;100.00
24230;BME280;12362;50.004;8.006;2023-05-22T00:05:11;100158.03;;;17.38;100.00
24230;BME280;12362;50.004;8.006;2023-05-22T00:07:37;100154.41;;;17.50;100.00
24230;BME280;12362;50.004;8.006;2023-05-22T00:10:04;100155.34;;;17.60;100.00
24230;BME280;12362;50.004;8.006;2023-05-22T00:12:30;100155.81;;;17.65;100.00
24230;BME280;12362;50.004;8.006;2023-05-22T00:14:55;100153.75;;;17.68;100.00
24230;BME280;12362;50.004;8.006;2023-05-22T00:17:21;100150.13;;;17.49;100.00
24230;BME280;12362;50.004;8.006;2023-05-22T00:19:47;100153.50;;;17.40;100.00
24230;BME280;12362;50.004;8.006;2023-05-22T00:22:13;100167.47;;;17.08;100.00
24230;BME280;12362;50.004;8.006;2023-05-22T00:24:38;100163.44;;;16.93;100.00
24230;BME280;12362;50.004;8.006;2023-05-22T00:27:04;100164.28;;;16.93;100.00
24230;BME280;12362;50.004;8.006;2023-05-22T00:29:30;100151.03;;;16.95;100.00
24230;BME280;12362;50.004;8.006;2023-05-22T00:31:56;100153.53;;;16.96;100.00
24230;BME280;12362;50.004;8.006;2023-05-22T00:34:21;100155.69;;;16.91;100.00
24230;BME280;12362;50.004;8.006;2023-05-22T00:36:47;100155.91;;;16.66;100.00
24230;BME280;12362;50.004;8.006;2023-05-22T00:39:13;100148.53;;;16.60;100.00
24230;BME280;12362;50.004;8.006;2023-05-22T00:41:38;100145.69;;;16.63;100.00
24230;BME280;12362;50.004;8.006;2023-05-22T00:44:04;100140.31;;;16.65;100.00
24230;BME280;12362;50.004;8.006;2023-05-22T00:46:30;100144.97;;;16.61;100.00
24230;BME280;12362;50.004;8.006;2023-05-22T00:48:55;100144.03;;;16.73;100.00
24230;BME280;12362;50.004;8.006;2023-05-22T00:51:21;100139.59;;;16.63;100.00
24230;BME280;12362;50.004;8.006;2023-05-22T00:53:47;100141.97;;;16.44;100.00
24230;BME280;12362;50.004;8.006;2023-05-22T00:56:13;100142.88;;;16.21;100.00
24230;BME280;12362;50.004;8.006;2023-05-22T00:58:40;100144.53;;;16.22;100.00
24230;BME280;12362;50.004;8.006;2023-05-22T01:01:06;100154.38;;;16.19;100.00
24230;BME280;12362;50.004;8.006;2023-05-22T01:03:35;100147.84;;;16.24;100.00
24230;BME280;12362;50.004;8.006;2023-05-22T01:06:02;100154.88;;;16.24;100.00
24230;BME280;12362;50.004;8.006;2023-05-22T01:08:27;100153.00;;;16.26;100.00
24230;BME280;12362;50.004;8.006;2023-05-22T01:10:58;100158.56;;;16.10;100.00
24230;BME280;12362;50.004;8.006;2023-05-22T01:13:36;100157.94;;;16.18;100.00
24230;BME280;12362;50.004;8.006;2023-05-22T01:16:16;100162.19;;;15.97;100.00
24230;BME280;12362;50.004;8.006;2023-05-22T01:19:53;100157.41;;;15.91;100.00
24230;BME280;12362;50.004;8.006;2023-05-22T01:22:02;100159.34;;;16.00;100.00
24230;BME280;12362;50.004;8.006;2023-05-22T01:33:13;100166.03;;;16.04;100.00
24230;BME280;12362;50.004;8.006;2023-05-22T01:35:40;100165.19;;;16.03;100.00
24230;BME280;12362;50.004;8.006;2023-05-22T01:38:09;100161.41;;;16.07;100.00
24230;BME280;12362;50.004;8.006;2023-05-22T01:40:35;100162.44;;;16.05;100.00
24230;BME280;12362;50.004;8.006;2023-05-22T01:43:02;100168.19;;;16.10;100.00
24230;BME280;12362;50.004;8.006;2023-05-22T01:45:28;100164.00;;;16.07;100.00
24230;BME280;12362;50.004;8.006;2023-05-22T01:47:57;100165.53;;;15.99;100.00
24230;BME280;12362;50.004;8.006;2023-05-22T01:50:23;100169.22;;;15.96;100.00
24230;BME280;12362;50.004;8.006;2023-05-22T01:52:58;100172.53;;;15.64;100.00
24230;BME280;12362;50.004;8.006;2023-05-22T01:55:50;100178.09;;;15.59;100.00
24230;BME280;12362;50.004;8.006;2023-05-22T01:58:24;100171.19;;;15.58;100.00
24230;BME280;12362;50.004;8.006;2023-05-22T02:00:51;100169.94;;;15.51;100.00
24230;BME280;12362;50.004;8.006;2023-05-22T02:03:25;100171.91;;;15.60;100.00
24230;BME280;12362;50.004;8.006;2023-05-22T02:05:53;100169.41;;;15.59;100.00
24230;BME280;12362;50.004;8.006;2023-05-22T02:08:20;100166.78;;;15.59;100.00
24230;BME280;12362;50.004;8.006;2023-05-22T02:10:48;100166.63;;;15.49;100.00
24230;BME280;12362;50.004;8.006;2023-05-22T02:13:14;100165.31;;;15.32;100.00
24230;BME280;12362;50.004;8.006;2023-05-22T02:15:40;100168.66;;;15.34;100.00
24230;BME280;12362;50.004;8.006;2023-05-22T02:18:09;100168.84;;;15.43;100.00
24230;BME280;12362;50.004;8.006;2023-05-22T02:20:38;100164.09;;;15.48;100.00
24230;BME280;12362;50.004;8.006;2023-05-22T02:23:04;100165.59;;;15.40;100.00
24230;BME280;12362;50.004;8.006;2023-05-22T02:25:29;100162.50;;;15.35;100.00
24230;BME280;12362;50.004;8.006;2023-05-22T02:27:55;100165.53;;;15.29;100.00
24230;BME280;12362;50.004;8.006;2023-05-22T02:30:21;100160.22;;;15.30;100.00
24230;BME280;12362;50.004;8.006;2023-05-22T02:32:49;100170.16;;;15.13;100.00
24230;BME280;12362;50.004;8.006;2023-05-22T02:35:15;100174.13;;;15.06;100.00
24230;BME280;12362;50.004;8.006;2023-05-22T02:37:40;100172.78;;;15.13;100.00
24230;BME280;12362;50.004;8.006;2023-05-22T02:40:07;100173.94;;;15.09;100.00
24230;BME280;12362;50.004;8.006;2023-05-22T02:42:34;100168.22;;;15.04;100.00
24230;BME280;12362;50.004;8.006;2023-05-22T02:45:01;100176.59;;;14.96;100.00
24230;BME280;12362;50.004;8.006;2023-05-22T02:47:26;100174.59;;;14.87;100.00
24230;BME280;12362;50.004;8.006;2023-05-22T02:49:52;100170.41;;;14.85;100.00
24230;BME280;12362;50.004;8.006;2023-05-22T02:52:18;100167.59;;;14.88;100.00
24230;BME280;12362;50.004;8.006;2023-05-22T02:54:43;100174.09;;;14.82;100.00
24230;BME280;12362;50.004;8.006;2023-05-22T02:57:09;100169.91;;;14.80;100.00
24230;BME280;12362;50.004;8.006;2023-05-22T02:59:34;100165.06;;;14.86;100.00
24230;BME280;12362;50.004;8.006;2023-05-22T03:02:01;100158.91;;;14.87;100.00
24230;BME280;12362;50.004;8.006;2023-05-22T03:04:27;100160.50;;;14.90;100.00
24230;BME280;12362;50.004;8.006;2023-05-22T03:06:54;100160.56;;;14.88;100.00
24230;BME280;12362;50.004;8.006;2023-05-22T03:09:19;100167.16;;;15.06;100.00
24230;BME280;12362;50.004;8.006;2023-05-22T03:11:45;100159.72;;;15.00;100.00
24230;BME280;12362;50.004;8.006;2023-05-22T03:14:10;100163.69;;;15.06;100.00
24230;BME280;12362;50.004;8.006;2023-05-22T03:16:36;100165.69;;;15.02;100.00
24230;BME280;12362;50.004;8.006;2023-05-22T03:19:13;100165.19;;;14.85;100.00
24230;BME280;12362;50.004;8.006;2023-05-22T03:21:39;100166.66;;;14.76;100.00
24230;BME280;12362;50.004;8.006;2023-05-22T03:24:06;100172.81;;;14.75;100.00
24230;BME280;12362;50.004;8.006;2023-05-22T03:26:32;100163.22;;;14.63;100.00
24230;BME280;12362;50.004;8.006;2023-05-22T03:28:59;100169.09;;;14.54;100.00
24230;BME280;12362;50.004;8.006;2023-05-22T03:31:28;100170.97;;;14.52;100.00
24230;BME280;12362;50.004;8.006;2023-05-22T03:34:07;100169.41;;;14.50;100.00
24230;BME280;12362;50.004;8.006;2023-05-22T03:36:34;100168.88;;;14.57;100.00
24230;BME280;12362;50.004;8.006;2023-05-22T03:39:03;100162.69;;;14.71;100.00
24230;BME280;12362;50.004;8.006;2023-05-22T03:41:32;100162.28;;;14.77;100.00
24230;BME280;12362;50.004;8.006;2023-05-22T03:43:58;100168.44;;;14.76;100.00
24230;BME280;12362;50.004;8.006;2023-05-22T03:46:24;100165.53;;;14.68;100.00
24230;BME280;12362;50.004;8.006;2023-05-22T03:48:50;100171.78;;;14.65;100.00
24230;BME280;12362;50.004;8.006;2023-05-22T03:51:16;100174.53;;;14.64;100.00
24230;BME280;12362;50.004;8.006;2023-05-22T03:53:41;100169.28;;;14.64;100.00
24230;BME280;12362;50.004;8.006;2023-05-22T03:56:07;100169.78;;;14.69;100.00
24230;BME280;12362;50.004;8.006;2023-05-22T03:58:32;100169.28;;;14.64;100.00
24230;BME280;12362;50.004;8.006;2023-05-22T04:00:58;100172.22;;;14.59;100.00
24230;BME280;12362;50.004;8.006;2023-05-22T04:03:25;100181.94;;;14.57;100.00
24230;BME280;12362;50.004;8.006;2023-05-22T04:05:51;100175.75;;;14.71;100.00
24230;BME280;12362;50.004;8.006;2023-05-22T04:08:18;100170.41;;;14.85;100.00
24230;BME280;12362;50.004;8.006;2023-05-22T04:10:43;100177.13;;;14.89;100.00
24230;BME280;12362;50.004;8.006;2023-05-22T04:13:12;100174.28;;;14.79;100.00
24230;BME280;12362;50.004;8.006;2023-05-22T04:15:38;100183.19;;;14.77;100.00
24230;BME280;12362;50.004;8.006;2023-05-22T04:18:06;100172.38;;;14.94;100.00
24230;BME280;12362;50.004;8.006;2023-05-22T04:20:32;100175.47;;;15.11;100.00
24230;BME280;12362;50.004;8.006;2023-05-22T04:22:57;100181.16;;;15.05;100.00
24230;BME280;12362;50.004;8.006;2023-05-22T04:25:23;100180.66;;;14.88;100.00
24230;BME280;12362;50.004;8.006;2023-05-22T04:27:48;100185.38;;;14.95;100.00
24230;BME280;12362;50.004;8.006;2023-05-22T04:30:15;100190.69;;;15.06;100.00
24230;BME280;12362;50.004;8.006;2023-05-22T04:32:41;100187.81;;;15.22;100.00
24230;BME280;12362;50.004;8.006;2023-05-22T04:35:08;100192.66;;;15.28;100.00
24230;BME280;12362;50.004;8.006;2023-05-22T04:37:34;100195.38;;;15.26;100.00
24230;BME280;12362;50.004;8.006;2023-05-22T04:40:00;100201.63;;;15.36;100.00
24230;BME280;12362;50.004;8.006;2023-05-22T04:42:32;100191.22;;;15.47;100.00
24230;BME280;12362;50.004;8.006;2023-05-22T04:44:59;100199.84;;;15.60;100.00
24230;BME280;12362;50.004;8.006;2023-05-22T04:47:25;100198.03;;;15.73;100.00
24230;BME280;12362;50.004;8.006;2023-05-22T04:49:53;100209.84;;;15.78;100.00
24230;BME280;12362;50.004;8.006;2023-05-22T04:52:21;100210.75;;;15.90;100.00
24230;BME280;12362;50.004;8.006;2023-05-22T04:54:47;100203.41;;;16.06;100.00
24230;BME280;12362;50.004;8.006;2023-05-22T04:57:13;100210.72;;;16.24;100.00
24230;BME280;12362;50.004;8.006;2023-05-22T04:59:39;100208.91;;;16.37;100.00
24230;BME280;12362;50.004;8.006;2023-05-22T05:02:05;100207.03;;;16.50;100.00
24230;BME280;12362;50.004;8.006;2023-05-22T05:04:31;100207.16;;;16.59;100.00
24230;BME280;12362;50.004;8.006;2023-05-22T05:06:57;100203.59;;;16.71;100.00
24230;BME280;12362;50.004;8.006;2023-05-22T05:09:23;100208.38;;;16.88;100.00
24230;BME280;12362;50.004;8.006;2023-05-22T05:11:49;100204.09;;;16.98;100.00
24230;BME280;12362;50.004;8.006;2023-05-22T05:14:15;100204.56;;;17.03;100.00
24230;BME280;12362;50.004;8.006;2023-05-22T05:16:42;100204.69;;;17.02;100.00
24230;BME280;12362;50.004;8.006;2023-05-22T05:19:08;100205.88;;;17.09;100.00
24230;BME280;12362;50.004;8.006;2023-05-22T05:21:33;100206.47;;;17.23;100.00
24230;BME280;12362;50.004;8.006;2023-05-22T05:23:59;100207.66;;;17.41;100.00
24230;BME280;12362;50.004;8.006;2023-05-22T05:26:25;100198.81;;;17.53;100.00
24230;BME280;12362;50.004;8.006;2023-05-22T05:28:52;100197.97;;;17.63;100.00
24230;BME280;12362;50.004;8.006;2023-05-22T05:31:18;100192.16;;;17.80;100.00
24230;BME280;12362;50.004;8.006;2023-05-22T05:34:07;100194.66;;;17.93;100.00
24230;BME280;12362;50.004;8.006;2023-05-22T05:36:47;100194.84;;;18.01;100.00
24230;BME280;12362;50.004;8.006;2023-05-22T05:39:13;100197.66;;;18.09;100.00
24230;BME280;12362;50.004;8.006;2023-05-22T05:41:39;100195.22;;;18.27;100.00
24230;BME280;12362;50.004;8.006;2023-05-22T05:44:07;100198.03;;;18.35;100.00
24230;BME280;12362;50.004;8.006;2023-05-22T05:46:33;100199.25;;;18.52;100.00
24230;BME280;12362;50.004;8.006;2023-05-22T05:49:05;100197.66;;;18.60;100.00
24230;BME280;12362;50.004;8.006;2023-05-22T05:51:34;100187.50;;;18.76;100.00
24230;BME280;12362;50.004;8.006;2023-05-22T05:54:01;100189.19;;;18.87;100.00
24230;BME280;12362;50.004;8.006;2023-05-22T05:56:26;100199.22;;;19.02;100.00
24230;BME280;12362;50.004;8.006;2023-05-22T05:58:53;100200.34;;;19.00;100.00
24230;BME280;12362;50.004;8.006;2023-05-22T06:01:36;100201.94;;;19.12;100.00
24230;BME280;12362;50.004;8.006;2023-05-22T06:04:06;100197.28;;;19.24;100.00
24230;BME280;12362;50.004;8.006;2023-05-22T06:06:33;100196.09;;;19.47;100.00
24230;BME280;12362;50.004;8.006;2023-05-22T06:09:22;100196.53;;;19.62;100.00
24230;BME280;12362;50.004;8.006;2023-05-22T06:12:23;100191.97;;;19.92;100.00
24230;BME280;12362;50.004;8.006;2023-05-22T06:14:49;100185.06;;;20.19;100.00
24230;BME280;12362;50.004;8.006;2023-05-22T06:17:15;100182.56;;;20.37;100.00
24230;BME280;12362;50.004;8.006;2023-05-22T06:19:42;100180.25;;;20.70;100.00
24230;BME280;12362;50.004;8.006;2023-05-22T06:22:07;100177.69;;;20.97;100.00
24230;BME280;12362;50.004;8.006;2023-05-22T06:24:34;100175.81;;;21.16;100.00
24230;BME280;12362;50.004;8.006;2023-05-22T06:27:05;100168.25;;;21.48;100.00
24230;BME280;12362;50.004;8.006;2023-05-22T06:29:30;100172.03;;;21.73;100.00
24230;BME280;12362;50.004;8.006;2023-05-22T06:31:56;100167.63;;;21.98;100.00
24230;BME280;12362;50.004;8.006;2023-05-22T06:34:21;100170.63;;;22.38;100.00
24230;BME280;12362;50.004;8.006;2023-05-22T06:36:47;100171.81;;;22.44;100.00
24230;BME280;12362;50.004;8.006;2023-05-22T06:39:18;100158.66;;;22.77;100.00
24230;BME280;12362;50.004;8.006;2023-05-22T06:42:01;100157.91;;;23.26;100.00
24230;BME280;12362;50.004;8.006;2023-05-22T06:44:47;100148.91;;;23.68;100.00
24230;BME280;12362;50.004;8.006;2023-05-22T06:47:12;100148.56;;;23.71;100.00
24230;BME280;12362;50.004;8.006;2023-05-22T06:49:40;100149.72;;;23.69;100.00
24230;BME280;12362;50.004;8.006;2023-05-22T06:52:05;100146.13;;;24.17;100.00
24230;BME280;12362;50.004;8.006;2023-05-22T06:54:31;100153.25;;;24.33;100.00
24230;BME280;12362;50.004;8.006;2023-05-22T06:56:56;100151.09;;;24.52;100.00
24230;BME280;12362;50.004;8.006;2023-05-22T06:59:25;100155.41;;;24.13;100.00
24230;BME280;12362;50.004;8.006;2023-05-22T07:02:11;100160.06;;;24.11;100.00
24230;BME280;12362;50.004;8.006;2023-05-22T07:04:55;100156.22;;;24.70;100.00
24230;BME280;12362;50.004;8.006;2023-05-22T07:07:28;100156.09;;;24.55;100.00
24230;BME280;12362;50.004;8.006;2023-05-22T07:09:55;100154.91;;;24.42;100.00
24230;BME280;12362;50.004;8.006;2023-05-22T07:12:22;100156.38;;;24.76;100.00
24230;BME280;12362;50.004;8.006;2023-05-22T07:14:51;100154.22;;;24.72;100.00
24230;BME280;12362;50.004;8.006;2023-05-22T07:17:16;100157.94;;;24.15;100.00
24230;BME280;12362;50.004;8.006;2023-05-22T07:19:43;100158.22;;;24.44;100.00
24230;BME280;12362;50.004;8.006;2023-05-22T07:22:09;100154.84;;;24.82;100.00
24230;BME280;12362;50.004;8.006;2023-05-22T07:24:36;100154.25;;;25.18;100.00
24230;BME280;12362;50.004;8.006;2023-05-22T07:27:03;100148.94;;;25.18;100.00
24230;BME280;12362;50.004;8.006;2023-05-22T07:29:29;100144.59;;;25.55;100.00
24230;BME280;12362;50.004;8.006;2023-05-22T07:31:56;100148.38;;;25.61;100.00
24230;BME280;12362;50.004;8.006;2023-05-22T07:34:24;100142.84;;;25.92;100.00
24230;BME280;12362;50.004;8.006;2023-05-22T07:36:56;100148.41;;;26.28;100.00
24230;BME280;12362;50.004;8.006;2023-05-22T07:39:22;100143.63;;;26.74;100.00
24230;BME280;12362;50.004;8.006;2023-05-22T07:41:48;100145.16;;;26.98;100.00
24230;BME280;12362;50.004;8.006;2023-05-22T07:44:15;100143.69;;;26.95;97.55
24230;BME280;12362;50.004;8.006;2023-05-22T07:46:41;100144.72;;;26.80;100.00
24230;BME280;12362;50.004;8.006;2023-05-22T07:49:13;100149.13;;;26.87;100.00
24230;BME280;12362;50.004;8.006;2023-05-22T07:51:43;100151.78;;;27.02;96.31
24230;BME280;12362;50.004;8.006;2023-05-22T07:54:09;100154.28;;;26.74;100.00
24230;BME280;12362;50.004;8.006;2023-05-22T07:56:40;100153.97;;;26.84;100.00
24230;BME280;12362;50.004;8.006;2023-05-22T07:59:06;100149.66;;;27.26;96.00
24230;BME280;12362;50.004;8.006;2023-05-22T08:01:33;100143.81;;;27.66;97.60
24230;BME280;12362;50.004;8.006;2023-05-22T08:04:02;100139.63;;;27.78;84.92
24230;BME280;12362;50.004;8.006;2023-05-22T08:06:27;100138.91;;;27.90;80.30
24230;BME280;12362;50.004;8.006;2023-05-22T08:08:54;100136.41;;;28.24;75.13
24230;BME280;12362;50.004;8.006;2023-05-22T08:11:19;100130.59;;;28.75;71.30
24230;BME280;12362;50.004;8.006;2023-05-22T08:13:45;100133.81;;;28.92;68.64
24230;BME280;12362;50.004;8.006;2023-05-22T08:16:11;100135.69;;;29.04;72.48
24230;BME280;12362;50.004;8.006;2023-05-22T08:18:36;100138.88;;;29.21;70.31
24230;BME280;12362;50.004;8.006;2023-05-22T08:21:02;100135.19;;;29.28;72.33
24230;BME280;12362;50.004;8.006;2023-05-22T08:23:27;100131.88;;;29.26;68.60
24230;BME280;12362;50.004;8.006;2023-05-22T08:26:05;100135.97;;;29.69;69.86
24230;BME280;12362;50.004;8.006;2023-05-22T08:28:33;100132.63;;;29.07;69.66
24230;BME280;12362;50.004;8.006;2023-05-22T08:30:58;100136.72;;;28.69;72.45
24230;BME280;12362;50.004;8.006;2023-05-22T08:33:24;100138.47;;;28.83;74.51
24230;BME280;12362;50.004;8.006;2023-05-22T08:35:51;100129.97;;;28.73;79.86
24230;BME280;12362;50.004;8.006;2023-05-22T08:38:16;100132.56;;;28.94;75.92
24230;BME280;12362;50.004;8.006;2023-05-22T08:40:46;100134.47;;;28.73;78.96
24230;BME280;12362;50.004;8.006;2023-05-22T08:43:13;100131.59;;;28.41;79.53
24230;BME280;12362;50.004;8.006;2023-05-22T08:45:39;100134.53;;;28.52;85.55
24230;BME280;12362;50.004;8.006;2023-05-22T08:48:12;100124.41;;;28.75;85.46
24230;BME280;12362;50.004;8.006;2023-05-22T08:50:42;100128.44;;;28.92;85.47
24230;BME280;12362;50.004;8.006;2023-05-22T08:53:11;100137.75;;;28.41;92.81
24230;BME280;12362;50.004;8.006;2023-05-22T08:55:38;100131.13;;;28.37;94.37
24230;BME280;12362;50.004;8.006;2023-05-22T08:58:04;100135.66;;;28.37;86.01
24230;BME280;12362;50.004;8.006;2023-05-22T09:00:30;100127.31;;;28.80;89.85
24230;BME280;12362;50.004;8.006;2023-05-22T09:02:56;100125.13;;;28.56;85.53
24230;BME280;12362;50.004;8.006;2023-05-22T09:05:22;100125.88;;;29.11;80.36
24230;BME280;12362;50.004;8.006;2023-05-22T09:07:52;100117.19;;;29.03;82.75
24230;BME280;12362;50.004;8.006;2023-05-22T09:10:18;100124.34;;;28.96;81.81
24230;BME280;12362;50.004;8.006;2023-05-22T09:13:06;100119.44;;;29.46;78.71
24230;BME280;12362;50.004;8.006;2023-05-22T09:15:34;100116.56;;;29.48;75.70
24230;BME280;12362;50.004;8.006;2023-05-22T09:18:02;100122.44;;;29.30;79.73
24230;BME280;12362;50.004;8.006;2023-05-22T09:20:28;100119.69;;;29.70;74.09
24230;BME280;12362;50.004;8.006;2023-05-22T09:22:53;100122.41;;;29.24;75.99
24230;BME280;12362;50.004;8.006;2023-05-22T09:25:20;100121.31;;;29.52;78.61
24230;BME280;12362;50.004;8.006;2023-05-22T09:27:49;100123.28;;;30.10;73.35
24230;BME280;12362;50.004;8.006;2023-05-22T09:30:18;100125.13;;;28.56;80.89
24230;BME280;12362;50.004;8.006;2023-05-22T09:32:50;100121.75;;;27.78;91.59
24230;BME280;12362;50.004;8.006;2023-05-22T09:35:17;100124.53;;;28.61;85.36
24230;BME280;12362;50.004;8.006;2023-05-22T09:37:44;100126.47;;;29.07;85.86
24230;BME280;12362;50.004;8.006;2023-05-22T09:40:10;100122.78;;;29.55;81.48
24230;BME280;12362;50.004;8.006;2023-05-22T09:42:38;100130.13;;;28.72;87.50
24230;BME280;12362;50.004;8.006;2023-05-22T09:45:07;100126.06;;;29.69;77.78
24230;BME280;12362;50.004;8.006;2023-05-22T09:47:33;100125.94;;;29.90;82.24
24230;BME280;12362;50.004;8.006;2023-05-22T09:50:01;100123.16;;;29.52;80.86
24230;BME280;12362;50.004;8.006;2023-05-22T09:52:32;100124.38;;;29.49;81.22
24230;BME280;12362;50.004;8.006;2023-05-22T09:55:01;100121.31;;;29.52;82.61
24230;BME280;12362;50.004;8.006;2023-05-22T09:57:30;100120.75;;;29.82;79.52
24230;BME280;12362;50.004;8.006;2023-05-22T09:59:58;100114.78;;;29.87;77.07
24230;BME280;12362;50.004;8.006;2023-05-22T10:02:26;100112.94;;;29.81;79.62
24230;BME280;12362;50.004;8.006;2023-05-22T10:04:52;100119.56;;;30.37;77.93
24230;BME280;12362;50.004;8.006;2023-05-22T10:07:24;100121.38;;;29.18;82.39
24230;BME280;12362;50.004;8.006;2023-05-22T10:09:55;100119.34;;;30.38;80.45
24230;BME280;12362;50.004;8.006;2023-05-22T10:12:24;100105.22;;;31.01;76.54
24230;BME280;12362;50.004;8.006;2023-05-22T10:14:52;100108.03;;;30.04;77.24
24230;BME280;12362;50.004;8.006;2023-05-22T10:17:18;100104.31;;;29.98;77.45
24230;BME280;12362;50.004;8.006;2023-05-22T10:19:45;100111.03;;;29.68;77.18
24230;BME280;12362;50.004;8.006;2023-05-22T10:22:12;100104.88;;;29.68;81.20
24230;BME280;12362;50.004;8.006;2023-05-22T10:24:45;100115.53;;;29.49;81.55
24230;BME280;12362;50.004;8.006;2023-05-22T10:27:12;100104.56;;;29.31;81.23
24230;BME280;12362;50.004;8.006;2023-05-22T10:29:44;100096.00;;;29.67;78.84
24230;BME280;12362;50.004;8.006;2023-05-22T10:32:26;100093.75;;;29.64;77.04
24230;BME280;12362;50.004;8.006;2023-05-22T10:35:06;100095.81;;;29.69;78.26
24230;BME280;12362;50.004;8.006;2023-05-22T10:37:44;100084.50;;;29.73;77.26
24230;BME280;12362;50.004;8.006;2023-05-22T10:40:14;100089.47;;;30.15;79.42
24230;BME280;12362;50.004;8.006;2023-05-22T10:42:42;100085.75;;;30.29;75.06
24230;BME280;12362;50.004;8.006;2023-05-22T10:45:09;100078.94;;;30.40;74.13
24230;BME280;12362;50.004;8.006;2023-05-22T10:47:35;100089.44;;;29.76;76.26
24230;BME280;12362;50.004;8.006;2023-05-22T10:50:07;100084.88;;;29.64;76.45
24230;BME280;12362;50.004;8.006;2023-05-22T10:52:37;100077.13;;;29.95;77.95
24230;BME280;12362;50.004;8.006;2023-05-22T10:55:10;100077.84;;;29.57;75.33
24230;BME280;12362;50.004;8.006;2023-05-22T10:57:37;100074.97;;;29.52;76.75
24230;BME280;12362;50.004;8.006;2023-05-22T11:02:41;100073.41;;;29.96;75.62
24230;BME280;12362;50.004;8.006;2023-05-22T11:07:41;100074.59;;;29.87;76.89
24230;BME280;12362;50.004;8.006;2023-05-22T11:10:06;100071.09;;;29.80;80.21
24230;BME280;12362;50.004;8.006;2023-05-22T11:12:32;100055.94;;;30.89;74.09
24230;BME280;12362;50.004;8.006;2023-05-22T11:15:07;100068.25;;;29.94;77.11
24230;BME280;12362;50.004;8.006;2023-05-22T11:20:05;100064.38;;;29.18;82.26
24230;BME280;12362;50.004;8.006;2023-05-22T11:22:36;100068.84;;;29.77;78.73
24230;BME280;12362;50.004;8.006;2023-05-22T11:25:23;100062.66;;;30.54;75.23
24230;BME280;12362;50.004;8.006;2023-05-22T11:27:53;100059.53;;;30.44;73.99
24230;BME280;12362;50.004;8.006;2023-05-22T11:30:19;100044.63;;;30.74;73.06
24230;BME280;12362;50.004;8.006;2023-05-22T11:32:45;100044.50;;;31.50;72.10
24230;BME280;12362;50.004;8.006;2023-05-22T11:35:17;100038.28;;;31.56;69.90
24230;BME280;12362;50.004;8.006;2023-05-22T11:37:43;100044.41;;;31.26;65.29
24230;BME280;12362;50.004;8.006;2023-05-22T11:40:09;100043.91;;;31.04;74.81
24230;BME280;12362;50.004;8.006;2023-05-22T11:42:36;100030.31;;;31.37;73.91
24230;BME280;12362;50.004;8.006;2023-05-22T11:45:02;100037.25;;;31.50;67.50
24230;BME280;12362;50.004;8.006;2023-05-22T11:47:28;100033.72;;;31.56;66.32
24230;BME280;12362;50.004;8.006;2023-05-22T11:49:56;100036.69;;;31.97;63.31
24230;BME280;12362;50.004;8.006;2023-05-22T11:52:22;100035.38;;;32.06;64.29
24230;BME280;12362;50.004;8.006;2023-05-22T11:54:48;100027.84;;;32.57;60.28
24230;BME280;12362;50.004;8.006;2023-05-22T11:57:14;100021.56;;;32.27;65.62
24230;BME280;12362;50.004;8.006;2023-05-22T11:59:43;100017.84;;;32.82;62.37
24230;BME280;12362;50.004;8.006;2023-05-22T12:02:09;100011.84;;;32.44;59.43
24230;BME280;12362;50.004;8.006;2023-05-22T12:04:36;100024.59;;;31.88;78.36
24230;BME280;12362;50.004;8.006;2023-05-22T12:07:02;100010.59;;;33.41;60.54
24230;BME280;12362;50.004;8.006;2023-05-22T12:09:28;100008.28;;;33.85;58.46
24230;BME280;12362;50.004;8.006;2023-05-22T12:11:54;100012.50;;;33.41;61.65
24230;BME280;12362;50.004;8.006;2023-05-22T12:14:27;100015.66;;;33.38;57.97
24230;BME280;12362;50.004;8.006;2023-05-22T12:16:53;100007.38;;;34.14;58.96
24230;BME280;12362;50.004;8.006;2023-05-22T12:19:20;100008.16;;;34.49;57.41
24230;BME280;12362;50.004;8.006;2023-05-22T12:21:49;100002.84;;;35.05;50.67
24230;BME280;12362;50.004;8.006;2023-05-22T12:24:15;100008.19;;;34.15;51.89
24230;BME280;12362;50.004;8.006;2023-05-22T12:26:49;100012.00;;;33.84;56.54
24230;BME280;12362;50.004;8.006;2023-05-22T12:29:16;100011.78;;;33.74;60.91
24230;BME280;12362;50.004;8.006;2023-05-22T12:31:43;100015.69;;;32.90;63.56
24230;BME280;12362;50.004;8.006;2023-05-22T12:34:34;100011.38;;;33.01;63.46
24230;BME280;12362;50.004;8.006;2023-05-22T12:37:00;100007.88;;;33.00;61.30
24230;BME280;12362;50.004;8.006;2023-05-22T12:39:27;99995.34;;;32.76;59.59
24230;BME280;12362;50.004;8.006;2023-05-22T12:41:52;99994.31;;;34.00;54.28
24230;BME280;12362;50.004;8.006;2023-05-22T12:44:18;99991.78;;;34.16;51.88
24230;BME280;12362;50.004;8.006;2023-05-22T12:46:43;99998.22;;;33.11;60.09
24230;BME280;12362;50.004;8.006;2023-05-22T12:49:09;99995.81;;;33.61;58.93
24230;BME280;12362;50.004;8.006;2023-05-22T12:51:34;100000.03;;;33.57;60.29
24230;BME280;12362;50.004;8.006;2023-05-22T12:54:01;99993.38;;;33.60;59.44
24230;BME280;12362;50.004;8.006;2023-05-22T12:56:27;99993.13;;;33.61;61.03
24230;BME280;12362;50.004;8.006;2023-05-22T12:58:53;99996.25;;;33.58;59.72
24230;BME280;12362;50.004;8.006;2023-05-22T13:01:18;99996.44;;;33.75;54.47
24230;BME280;12362;50.004;8.006;2023-05-22T13:03:45;99999.25;;;34.03;50.79
24230;BME280;12362;50.004;8.006;2023-05-22T13:06:11;100007.56;;;33.38;52.53